createdAt,value
2023-04-13T00:02:28.594Z,8.90
2023-04-13T00:05:00.907Z,8.60
2023-04-13T00:07:33.999Z,9.35
2023-04-13T00:10:11.008Z,8.07
2023-04-13T00:12:41.162Z,9.00
2023-04-13T00:15:13.484Z,9.40
2023-04-13T00:17:46.528Z,8.80
2023-04-13T00:20:17.840Z,9.00
2023-04-13T00:22:48.883Z,9.00
2023-04-13T00:25:21.989Z,9.47
2023-04-13T00:27:55.345Z,9.10
2023-04-13T00:30:26.217Z,9.43
2023-04-13T00:32:57.108Z,9.58
2023-04-13T00:35:29.962Z,9.98
2023-04-13T00:38:10.258Z,9.90
2023-04-13T00:40:41.098Z,9.45
2023-04-13T00:43:11.929Z,9.63
2023-04-13T00:45:47.777Z,10.98
2023-04-13T00:48:20.552Z,10.63
2023-04-13T00:50:51.986Z,10.82
2023-04-13T00:53:24.724Z,10.57
2023-04-13T00:55:58.320Z,11.33
2023-04-13T00:58:28.934Z,11.63
2023-04-13T01:00:59.556Z,11.90
2023-04-13T01:03:31.876Z,11.00
2023-04-13T01:06:11.605Z,10.85
2023-04-13T01:08:51.881Z,11.50
2023-04-13T01:11:41.486Z,12.10
2023-04-13T01:14:27.740Z,11.50
2023-04-13T01:17:02.433Z,11.50
2023-04-13T01:20:06.456Z,11.33
2023-04-13T01:22:39.850Z,11.50
2023-04-13T01:25:22.721Z,11.03
2023-04-13T01:28:06.435Z,11.00
2023-04-13T01:30:38.816Z,10.23
2023-04-13T01:33:11.319Z,11.33
2023-04-13T01:35:42.269Z,10.20
2023-04-13T01:38:14.348Z,9.85
2023-04-13T01:40:46.092Z,10.85
2023-04-13T01:43:16.687Z,9.97
2023-04-13T01:45:55.899Z,10.40
2023-04-13T01:48:51.915Z,10.37
2023-04-13T01:51:29.402Z,10.98
2023-04-13T01:54:12.887Z,10.77
2023-04-13T01:56:45.528Z,10.57
2023-04-13T01:59:16.920Z,11.40
2023-04-13T02:01:48.815Z,11.20
2023-04-13T02:04:20.013Z,10.57
2023-04-13T02:06:51.579Z,10.50
2023-04-13T02:09:23.722Z,10.63
2023-04-13T02:11:55.380Z,11.10
2023-04-13T02:14:26.175Z,10.10
2023-04-13T02:16:58.432Z,10.10
2023-04-13T02:19:30.187Z,10.40
2023-04-13T02:22:01.240Z,10.07
2023-04-13T02:24:32.885Z,9.30
2023-04-13T02:27:04.118Z,8.77
2023-04-13T02:29:35.008Z,8.13
2023-04-13T02:32:07.977Z,8.30
2023-04-13T02:34:38.694Z,7.93
2023-04-13T02:37:09.495Z,7.20
2023-04-13T02:39:41.155Z,7.67
2023-04-13T02:42:12.036Z,7.67
2023-04-13T02:44:43.225Z,7.33
2023-04-13T02:47:14.684Z,7.17
2023-04-13T02:49:47.139Z,7.00
2023-04-13T02:52:18.002Z,6.80
2023-04-13T02:54:53.352Z,6.60
2023-04-13T02:57:25.208Z,7.03
2023-04-13T02:59:55.710Z,6.65
2023-04-13T03:02:27.993Z,6.97
2023-04-13T03:05:00.412Z,7.30
2023-04-13T03:07:31.874Z,7.00
2023-04-13T03:10:05.890Z,7.17
2023-04-13T03:12:37.730Z,7.43
2023-04-13T03:15:10.712Z,7.03
2023-04-13T03:17:44.085Z,7.40
2023-04-13T03:20:16.446Z,6.65
2023-04-13T03:22:47.256Z,6.83
2023-04-13T03:25:17.953Z,6.40
2023-04-13T03:27:48.661Z,6.03
2023-04-13T03:30:19.674Z,7.00
2023-04-13T03:32:51.827Z,6.13
2023-04-13T03:35:22.299Z,5.97
2023-04-13T03:37:52.994Z,5.43
2023-04-13T03:40:24.375Z,5.80
2023-04-13T03:42:54.886Z,5.40
2023-04-13T03:45:25.910Z,5.53
2023-04-13T03:47:56.547Z,5.67
2023-04-13T03:50:28.579Z,5.27
2023-04-13T03:52:58.996Z,5.37
2023-04-13T03:55:29.915Z,5.80
2023-04-13T03:58:03.826Z,5.87
2023-04-13T04:00:36.097Z,5.53
2023-04-13T04:03:09.019Z,5.50
2023-04-13T04:05:42.141Z,5.50
2023-04-13T04:08:12.535Z,5.43
2023-04-13T04:10:44.903Z,5.90
2023-04-13T04:13:17.790Z,5.77
2023-04-13T04:15:48.472Z,5.67
2023-04-13T04:18:20.415Z,5.90
2023-04-13T04:20:51.269Z,5.57
2023-04-13T04:23:24.966Z,5.55
2023-04-13T04:25:57.692Z,5.17
2023-04-13T04:28:30.571Z,4.93
2023-04-13T04:31:04.051Z,6.03
2023-04-13T04:33:36.057Z,5.63
2023-04-13T04:36:15.036Z,5.67
2023-04-13T04:38:47.625Z,5.23
2023-04-13T04:41:19.741Z,5.58
2023-04-13T04:43:50.286Z,5.50
2023-04-13T04:46:22.202Z,5.60
2023-04-13T04:48:55.552Z,5.70
2023-04-13T04:51:27.988Z,5.70
2023-04-13T04:54:00.311Z,5.30
2023-04-13T04:56:33.102Z,5.87
2023-04-13T04:59:04.776Z,5.73
2023-04-13T05:01:35.923Z,5.40
2023-04-13T05:04:08.067Z,5.30
2023-04-13T05:06:41.705Z,5.78
2023-04-13T05:09:12.716Z,5.57
2023-04-13T05:11:43.283Z,6.00
2023-04-13T05:14:15.549Z,5.97
2023-04-13T05:16:47.915Z,5.83
2023-04-13T05:19:18.848Z,6.00
2023-04-13T05:21:51.240Z,6.43
2023-04-13T05:24:21.746Z,7.37
2023-04-13T05:26:53.156Z,6.45
2023-04-13T05:29:24.952Z,6.47
2023-04-13T05:31:57.678Z,7.33
2023-04-13T05:34:32.359Z,7.27
2023-04-13T05:37:05.424Z,7.63
2023-04-13T05:39:36.298Z,7.78
2023-04-13T05:42:08.676Z,7.73
2023-04-13T05:44:39.321Z,8.00
2023-04-13T05:47:11.839Z,8.30
2023-04-13T05:49:42.469Z,7.77
2023-04-13T05:52:14.736Z,7.70
2023-04-13T05:54:45.661Z,8.00
2023-04-13T05:57:18.393Z,8.70
2023-04-13T05:59:48.868Z,8.20
2023-04-13T06:02:20.568Z,7.80
2023-04-13T06:04:52.929Z,8.03
2023-04-13T06:07:24.176Z,7.83
2023-04-13T06:09:55.472Z,7.67
2023-04-13T06:12:32.181Z,7.53
2023-04-13T06:15:03.669Z,7.53
2023-04-13T06:17:36.449Z,7.13
2023-04-13T06:20:11.098Z,7.47
2023-04-13T06:22:43.273Z,7.30
2023-04-13T06:25:15.161Z,6.85
2023-04-13T06:27:50.006Z,6.62
2023-04-13T06:30:24.123Z,6.33
2023-04-13T06:32:55.237Z,6.63
2023-04-13T06:35:26.106Z,6.47
2023-04-13T06:37:59.631Z,6.60
2023-04-13T06:40:32.517Z,6.22
2023-04-13T06:43:03.846Z,6.63
2023-04-13T06:45:37.164Z,6.20
2023-04-13T06:48:08.051Z,4.63
2023-04-13T06:50:42.595Z,4.53
2023-04-13T06:53:13.016Z,4.83
2023-04-13T06:55:45.033Z,4.33
2023-04-13T06:58:16.578Z,4.20
2023-04-13T07:00:48.949Z,4.20
2023-04-13T07:03:19.663Z,3.83
2023-04-13T07:05:51.988Z,4.70
2023-04-13T07:08:22.907Z,4.60
2023-04-13T07:10:58.843Z,5.03
2023-04-13T07:13:31.023Z,4.17
2023-04-13T07:16:01.879Z,4.22
2023-04-13T07:18:32.680Z,4.30
2023-04-13T07:21:04.444Z,3.85
2023-04-13T07:23:35.521Z,3.75
2023-04-13T07:26:08.504Z,3.20
2023-04-13T07:28:42.325Z,3.60
2023-04-13T07:31:13.581Z,3.50
2023-04-13T07:33:44.287Z,3.87
2023-04-13T07:36:15.290Z,3.50
2023-04-13T07:38:46.417Z,2.87
2023-04-13T07:41:19.705Z,2.92
2023-04-13T07:43:51.708Z,3.70
2023-04-13T07:46:24.116Z,3.37
2023-04-13T07:48:57.010Z,3.70
2023-04-13T07:51:27.544Z,3.20
2023-04-13T07:53:58.027Z,3.42
2023-04-13T07:56:30.979Z,3.40
2023-04-13T07:59:03.078Z,2.97
2023-04-13T08:01:34.845Z,3.55
2023-04-13T08:04:05.607Z,3.15
2023-04-13T08:06:37.002Z,2.90
2023-04-13T08:09:08.156Z,3.17
2023-04-13T08:11:38.650Z,2.87
2023-04-13T08:14:12.243Z,3.08
2023-04-13T08:16:46.468Z,3.15
2023-04-13T08:19:18.157Z,3.12
2023-04-13T08:21:49.895Z,3.33
2023-04-13T08:24:24.321Z,2.50
2023-04-13T08:26:57.339Z,2.70
2023-04-13T08:29:29.874Z,3.25
2023-04-13T08:32:00.489Z,3.08
2023-04-13T08:34:33.329Z,2.95
2023-04-13T08:37:05.883Z,2.50
2023-04-13T08:39:38.022Z,2.55
2023-04-13T08:42:08.761Z,2.10
2023-04-13T08:44:45.506Z,2.25
2023-04-13T08:47:16.988Z,2.00
2023-04-13T08:49:49.661Z,2.33
2023-04-13T08:52:24.476Z,2.10
2023-04-13T08:55:01.004Z,1.90
2023-04-13T08:57:34.957Z,1.98
2023-04-13T09:00:11.047Z,1.87
2023-04-13T09:03:00.232Z,2.08
2023-04-13T09:05:17.480Z,1.50
2023-04-13T09:07:53.836Z,2.12
2023-04-13T09:10:26.304Z,2.45
2023-04-13T09:12:57.441Z,2.17
2023-04-13T09:15:27.978Z,2.35
2023-04-13T09:18:10.843Z,1.52
2023-04-13T09:20:41.428Z,1.60
2023-04-13T09:23:16.545Z,1.80
2023-04-13T09:25:48.795Z,1.42
2023-04-13T09:28:21.255Z,1.40
2023-04-13T09:30:53.587Z,1.50
2023-04-13T09:33:24.233Z,1.45
2023-04-13T09:35:54.660Z,1.70
2023-04-13T09:38:28.351Z,1.50
2023-04-13T09:41:00.814Z,1.70
2023-04-13T09:43:38.809Z,1.70
2023-04-13T09:46:16.182Z,1.40
2023-04-13T09:48:46.879Z,1.40
2023-04-13T09:51:20.342Z,1.77
2023-04-13T09:53:53.620Z,1.50
2023-04-13T09:56:25.934Z,1.55
2023-04-13T09:58:58.203Z,1.55
2023-04-13T10:01:31.856Z,1.60
2023-04-13T10:04:03.477Z,1.40
2023-04-13T10:06:40.030Z,1.50
2023-04-13T10:09:12.784Z,1.80
2023-04-13T10:11:47.218Z,1.47
2023-04-13T10:14:28.416Z,1.57
2023-04-13T10:17:17.104Z,1.30
2023-04-13T10:19:50.788Z,1.62
2023-04-13T10:22:24.114Z,1.30
2023-04-13T10:24:56.375Z,1.30
2023-04-13T10:27:29.249Z,1.40
2023-04-13T10:30:01.731Z,1.30
2023-04-13T10:32:32.444Z,1.25
2023-04-13T10:35:13.424Z,1.22
2023-04-13T10:37:45.722Z,1.20
2023-04-13T10:40:17.282Z,1.40
2023-04-13T10:42:52.874Z,1.30
2023-04-13T10:45:32.408Z,1.20
2023-04-13T10:48:06.392Z,1.60
2023-04-13T10:50:38.697Z,1.52
2023-04-13T10:53:10.886Z,1.30
2023-04-13T10:55:41.518Z,1.10
2023-04-13T10:58:18.398Z,1.50
2023-04-13T11:00:53.768Z,1.77
2023-04-13T11:03:27.497Z,2.40
2023-04-13T11:05:59.986Z,1.65
2023-04-13T11:08:32.980Z,1.35
2023-04-13T11:11:03.477Z,1.30
2023-04-13T11:13:34.018Z,1.60
2023-04-13T11:16:08.025Z,1.40
2023-04-13T11:18:38.594Z,1.40
2023-04-13T11:21:17.343Z,2.00
2023-04-13T11:23:55.300Z,1.47
2023-04-13T11:26:36.255Z,1.50
2023-04-13T11:29:07.148Z,1.40
2023-04-13T11:31:40.151Z,1.67
2023-04-13T11:34:13.025Z,1.50
2023-04-13T11:36:48.667Z,1.35
2023-04-13T11:39:24.071Z,1.95
2023-04-13T11:41:57.329Z,1.67
2023-04-13T11:44:28.016Z,1.30
2023-04-13T11:47:00.237Z,1.45
2023-04-13T11:49:33.032Z,1.22
2023-04-13T11:52:10.554Z,1.60
2023-04-13T11:54:40.616Z,1.40
2023-04-13T11:57:11.621Z,1.40
2023-04-13T11:59:42.930Z,1.55
2023-04-13T12:02:22.087Z,1.30
2023-04-13T12:04:50.302Z,1.20
2023-04-13T12:07:23.392Z,1.70
2023-04-13T12:09:58.312Z,1.30
2023-04-13T12:12:51.095Z,1.42
2023-04-13T12:15:19.563Z,1.75
2023-04-13T12:17:43.998Z,1.50
2023-04-13T12:20:15.923Z,1.47
2023-04-13T12:22:57.697Z,1.52
2023-04-13T12:25:24.421Z,1.90
2023-04-13T12:27:55.540Z,1.70
2023-04-13T12:30:27.368Z,1.25
2023-04-13T12:32:59.161Z,1.10
2023-04-13T12:35:32.689Z,1.80
2023-04-13T12:38:06.007Z,1.60
2023-04-13T12:40:38.164Z,1.52
2023-04-13T12:43:09.152Z,1.45
2023-04-13T12:45:41.629Z,1.50
2023-04-13T12:48:15.466Z,1.60
2023-04-13T12:50:51.054Z,1.57
2023-04-13T12:53:22.404Z,1.60
2023-04-13T12:55:54.759Z,1.50
2023-04-13T12:58:30.741Z,1.30
2023-04-13T13:01:04.443Z,1.70
2023-04-13T13:03:36.861Z,1.60
2023-04-13T13:06:13.999Z,1.30
2023-04-13T13:08:47.006Z,1.10
2023-04-13T13:11:21.389Z,1.52
2023-04-13T13:13:52.618Z,1.37
2023-04-13T13:16:23.788Z,1.90
2023-04-13T13:18:55.357Z,1.45
2023-04-13T13:21:27.765Z,1.40
2023-04-13T13:24:01.159Z,1.62
2023-04-13T13:26:51.821Z,2.00
2023-04-13T13:29:09.546Z,1.35
2023-04-13T13:31:41.589Z,1.40
2023-04-13T13:34:12.663Z,1.90
2023-04-13T13:36:43.179Z,2.40
2023-04-13T13:39:17.847Z,1.98
2023-04-13T13:41:53.971Z,1.20
2023-04-13T13:44:25.961Z,1.27
2023-04-13T13:46:57.056Z,1.50
2023-04-13T13:49:29.435Z,1.30
2023-04-13T13:52:02.045Z,1.70
2023-04-13T13:54:34.966Z,2.22
2023-04-13T13:57:07.496Z,1.98
2023-04-13T13:59:38.992Z,2.72
2023-04-13T14:02:12.344Z,1.27
2023-04-13T14:04:44.446Z,1.85
2023-04-13T14:07:15.990Z,1.77
2023-04-13T14:09:48.682Z,1.45
2023-04-13T14:12:21.053Z,1.45
2023-04-13T14:14:54.446Z,1.50
2023-04-13T14:17:26.238Z,1.20
2023-04-13T14:19:56.796Z,1.30
2023-04-13T14:22:27.665Z,1.55
2023-04-13T14:24:59.539Z,0.95
2023-04-13T14:27:32.536Z,1.45
2023-04-13T14:30:04.116Z,1.32
2023-04-13T14:32:35.213Z,1.82
2023-04-13T14:35:06.377Z,1.62
2023-04-13T14:37:38.649Z,1.60
2023-04-13T14:40:13.425Z,1.42
2023-04-13T14:42:45.599Z,2.00
2023-04-13T14:45:17.721Z,1.70
2023-04-13T14:47:48.691Z,2.10
2023-04-13T14:50:19.502Z,1.60
2023-04-13T14:52:51.054Z,1.40
2023-04-13T14:55:21.761Z,1.70
2023-04-13T14:57:53.655Z,1.32
2023-04-13T15:00:25.800Z,1.50
2023-04-13T15:02:57.178Z,1.37
2023-04-13T15:05:28.390Z,1.42
2023-04-13T15:07:59.232Z,1.30
2023-04-13T15:10:30.408Z,1.20
2023-04-13T15:13:01.980Z,1.50
2023-04-13T15:15:34.457Z,1.47
2023-04-13T15:18:07.625Z,1.30
2023-04-13T15:20:38.188Z,1.30
2023-04-13T15:23:09.038Z,1.35
2023-04-13T15:25:41.858Z,1.62
2023-04-13T15:28:12.949Z,1.60
2023-04-13T15:30:43.526Z,1.40
2023-04-13T15:33:14.241Z,1.55
2023-04-13T15:35:45.078Z,1.77
2023-04-13T15:38:18.689Z,1.60
2023-04-13T15:40:51.306Z,1.30
2023-04-13T15:43:22.080Z,1.95
2023-04-13T15:45:54.604Z,1.67
2023-04-13T15:48:27.195Z,1.47
2023-04-13T15:51:03.881Z,1.57
2023-04-13T15:53:34.396Z,1.40
2023-04-13T15:56:06.614Z,1.72
2023-04-13T15:58:37.365Z,1.30
2023-04-13T16:01:11.315Z,1.70
2023-04-13T16:06:05.228Z,1.77
2023-04-13T16:08:35.887Z,1.55
2023-04-13T16:11:07.752Z,1.80
2023-04-13T16:13:49.457Z,1.65
2023-04-13T16:16:14.951Z,1.60
2023-04-13T16:18:45.673Z,1.27
2023-04-13T16:21:23.847Z,1.37
2023-04-13T16:23:54.368Z,1.42
2023-04-13T16:26:26.698Z,1.60
2023-04-13T16:28:57.987Z,1.70
2023-04-13T16:31:31.237Z,1.70
2023-04-13T16:34:11.783Z,1.37
2023-04-13T16:36:36.932Z,1.62
2023-04-13T16:39:13.385Z,1.67
2023-04-13T16:41:44.903Z,1.70
2023-04-13T16:44:16.631Z,1.65
2023-04-13T16:46:51.137Z,1.42
2023-04-13T16:49:24.218Z,1.47
2023-04-13T16:51:55.244Z,1.55
2023-04-13T16:54:26.404Z,1.67
2023-04-13T16:56:58.633Z,1.62
2023-04-13T16:59:32.280Z,2.02
2023-04-13T17:02:03.458Z,1.90
2023-04-13T17:04:34.264Z,1.60
2023-04-13T17:07:06.420Z,1.62
2023-04-13T17:09:37.437Z,1.80
2023-04-13T17:12:09.596Z,1.80
2023-04-13T17:14:43.303Z,1.42
2023-04-13T17:17:14.036Z,1.57
2023-04-13T17:19:49.198Z,2.10
2023-04-13T17:22:20.036Z,2.10
2023-04-13T17:24:51.074Z,1.95
2023-04-13T17:27:23.255Z,1.90
2023-04-13T17:30:03.514Z,1.80
2023-04-13T17:32:34.949Z,1.70
2023-04-13T17:35:07.476Z,1.60
2023-04-13T17:37:38.115Z,1.55
2023-04-13T17:40:10.508Z,1.90
2023-04-13T17:42:41.586Z,2.40
2023-04-13T17:45:14.649Z,2.08
2023-04-13T17:47:49.746Z,2.80
2023-04-13T17:50:21.406Z,2.30
2023-04-13T17:52:52.276Z,2.05
2023-04-13T17:55:24.517Z,2.10
2023-04-13T17:57:55.105Z,2.37
2023-04-13T18:00:27.939Z,2.50
2023-04-13T18:02:59.070Z,3.00
2023-04-13T18:05:31.224Z,2.87
2023-04-13T18:08:01.895Z,4.70
2023-04-13T18:10:33.028Z,2.75
2023-04-13T18:13:05.513Z,3.08
2023-04-13T18:15:37.327Z,3.12
2023-04-13T18:18:09.456Z,3.98
2023-04-13T18:20:41.458Z,3.22
2023-04-13T18:23:12.693Z,4.10
2023-04-13T18:25:43.273Z,4.60
2023-04-13T18:28:15.190Z,4.10
2023-04-13T18:30:46.751Z,5.08
2023-04-13T18:33:19.056Z,5.30
2023-04-13T18:35:50.523Z,4.30
2023-04-13T18:38:22.767Z,3.80
2023-04-13T18:40:54.901Z,3.17
2023-04-13T18:43:25.434Z,4.33
2023-04-13T18:45:56.941Z,5.25
2023-04-13T18:48:30.990Z,4.42
2023-04-13T18:51:03.788Z,4.25
2023-04-13T18:53:35.599Z,5.15
2023-04-13T18:56:09.288Z,4.95
2023-04-13T18:58:40.152Z,4.22
2023-04-13T19:01:20.226Z,4.12
2023-04-13T19:03:54.194Z,4.97
2023-04-13T19:06:27.921Z,5.10
2023-04-13T19:08:58.620Z,5.80
2023-04-13T19:11:29.107Z,6.47
2023-04-13T19:14:00.924Z,6.08
2023-04-13T19:16:33.730Z,7.28
2023-04-13T19:19:07.623Z,7.35
2023-04-13T19:21:39.756Z,6.33
2023-04-13T19:24:12.901Z,6.60
2023-04-13T19:26:45.037Z,6.60
2023-04-13T19:29:17.331Z,6.25
2023-04-13T19:31:49.976Z,5.03
2023-04-13T19:34:20.716Z,5.42
2023-04-13T19:36:53.937Z,5.70
2023-04-13T19:39:24.565Z,5.40
2023-04-13T19:41:56.970Z,6.50
2023-04-13T19:44:28.040Z,6.10
2023-04-13T19:46:58.952Z,6.45
2023-04-13T19:49:29.522Z,6.62
2023-04-13T19:52:00.104Z,5.95
2023-04-13T19:54:31.143Z,5.60
2023-04-13T19:57:02.194Z,6.45
2023-04-13T19:59:32.721Z,6.85
2023-04-13T20:02:04.920Z,7.20
2023-04-13T20:04:37.754Z,7.20
2023-04-13T20:07:11.823Z,7.25
2023-04-13T20:09:42.000Z,6.30
2023-04-13T20:12:13.980Z,6.12
2023-04-13T20:14:46.472Z,6.50
2023-04-13T20:17:17.132Z,6.17
2023-04-13T20:19:47.960Z,7.15
2023-04-13T20:22:18.610Z,7.17
2023-04-13T20:24:49.591Z,7.17
2023-04-13T20:27:23.946Z,6.80
2023-04-13T20:29:54.460Z,7.25
2023-04-13T20:32:25.356Z,7.10
2023-04-13T20:34:56.359Z,6.33
2023-04-13T20:37:28.578Z,7.08
2023-04-13T20:40:02.177Z,7.05
2023-04-13T20:42:35.537Z,7.60
2023-04-13T20:45:10.846Z,6.55
2023-04-13T20:47:45.668Z,7.15
2023-04-13T20:50:25.709Z,7.05
2023-04-13T20:52:56.940Z,7.10
2023-04-13T20:55:27.812Z,6.45
2023-04-13T20:58:01.371Z,6.60
2023-04-13T21:00:34.100Z,8.00
2023-04-13T21:03:05.148Z,7.37
2023-04-13T21:05:37.348Z,7.03
2023-04-13T21:08:09.511Z,7.40
2023-04-13T21:10:39.992Z,7.40
2023-04-13T21:13:10.953Z,7.53
2023-04-13T21:15:41.528Z,7.72
2023-04-13T21:18:13.758Z,7.20
2023-04-13T21:20:44.744Z,7.83
2023-04-13T21:23:15.326Z,8.40
2023-04-13T21:25:48.684Z,8.75
2023-04-13T21:28:20.489Z,8.00
2023-04-13T21:30:52.271Z,7.78
2023-04-13T21:33:23.758Z,7.92
2023-04-13T21:35:54.418Z,8.33
2023-04-13T21:38:25.465Z,8.30
2023-04-13T21:40:56.340Z,7.03
2023-04-13T21:43:27.206Z,7.47
2023-04-13T21:45:58.820Z,7.85
2023-04-13T21:48:32.571Z,7.58
2023-04-13T21:51:04.320Z,8.25
2023-04-13T21:53:36.717Z,9.20
2023-04-13T21:56:07.697Z,8.48
2023-04-13T21:58:50.634Z,7.35
2023-04-13T22:01:23.020Z,6.78
2023-04-13T22:03:54.320Z,7.33
2023-04-13T22:06:27.451Z,7.72
2023-04-13T22:09:01.203Z,7.70
2023-04-13T22:11:33.731Z,7.40
2023-04-13T22:14:04.280Z,7.62
2023-04-13T22:16:36.424Z,7.53
2023-04-13T22:19:07.019Z,7.30
2023-04-13T22:21:38.995Z,7.33
2023-04-13T22:24:11.344Z,7.67
2023-04-13T22:26:42.078Z,13.20
2023-04-13T22:29:15.476Z,11.10
2023-04-13T22:31:46.167Z,9.98
2023-04-13T22:34:17.171Z,8.50
2023-04-13T22:36:52.256Z,8.25
2023-04-13T22:39:22.909Z,8.18
2023-04-13T22:41:53.419Z,8.15
2023-04-13T22:44:24.283Z,8.13
2023-04-13T22:46:55.638Z,8.00
2023-04-13T22:49:26.274Z,7.93
2023-04-13T22:51:56.977Z,7.87
2023-04-13T22:54:27.543Z,8.10
2023-04-13T22:57:00.140Z,7.78
2023-04-13T22:59:31.487Z,8.00
2023-04-13T23:02:03.692Z,8.28
2023-04-13T23:04:34.727Z,7.85
2023-04-13T23:07:07.690Z,8.13
2023-04-13T23:09:38.453Z,7.95
2023-04-13T23:12:08.978Z,8.33
2023-04-13T23:14:41.556Z,8.75
2023-04-13T23:17:12.672Z,8.33
2023-04-13T23:19:43.302Z,7.60
2023-04-13T23:22:14.205Z,7.37
2023-04-13T23:24:44.810Z,7.17
2023-04-13T23:27:15.549Z,7.40
2023-04-13T23:29:51.878Z,7.28
2023-04-13T23:32:22.597Z,7.87
2023-04-13T23:34:56.014Z,7.50
2023-04-13T23:37:26.529Z,7.30
2023-04-13T23:40:00.758Z,7.33
2023-04-13T23:42:31.456Z,6.97
2023-04-13T23:45:04.191Z,6.50
2023-04-13T23:47:35.441Z,6.30
2023-04-13T23:50:08.531Z,6.42
2023-04-13T23:52:39.409Z,7.50
2023-04-13T23:55:11.098Z,6.47
2023-04-13T23:57:41.856Z,6.65
